createdAt,value
2019-03-30T00:01:56.760Z,97.77
2019-03-30T00:04:24.291Z,97.98
2019-03-30T00:06:51.769Z,97.51
2019-03-30T00:09:19.272Z,97.92
2019-03-30T00:11:46.801Z,98.54
2019-03-30T00:14:14.321Z,98.57
2019-03-30T00:16:41.786Z,97.55
2019-03-30T00:19:09.301Z,96.91
2019-03-30T00:21:36.792Z,97.13
2019-03-30T00:24:04.326Z,98.27
2019-03-30T00:26:31.808Z,96.71
2019-03-30T00:28:59.317Z,96.52
2019-03-30T00:31:26.826Z,98.05
2019-03-30T00:33:54.350Z,97.54
2019-03-30T00:36:21.818Z,98.58
2019-03-30T00:38:49.342Z,98.02
2019-03-30T00:41:16.823Z,97.45
2019-03-30T00:43:44.342Z,98.45
2019-03-30T00:46:11.827Z,99.30
2019-03-30T00:48:39.334Z,99.41
2019-03-30T00:51:06.807Z,98.47
2019-03-30T00:53:34.333Z,97.27
2019-03-30T00:56:01.840Z,98.52
2019-03-30T00:58:29.349Z,99.16
2019-03-30T01:00:56.832Z,98.96
2019-03-30T01:03:24.366Z,99.85
2019-03-30T01:05:51.871Z,98.40
2019-03-30T01:08:19.360Z,97.48
2019-03-30T01:10:47.176Z,97.51
2019-03-30T01:13:14.767Z,97.58
2019-03-30T01:15:42.282Z,97.04
2019-03-30T01:18:09.867Z,98.05
2019-03-30T01:20:37.374Z,97.11
2019-03-30T01:23:04.908Z,96.96
2019-03-30T01:25:32.410Z,97.21
2019-03-30T01:27:59.899Z,96.52
2019-03-30T01:30:27.531Z,98.23
2019-03-30T01:32:55.020Z,98.98
2019-03-30T01:35:22.682Z,99.43
2019-03-30T01:37:50.377Z,98.71
2019-03-30T01:40:18.180Z,96.83
2019-03-30T01:42:45.670Z,97.18
2019-03-30T01:45:13.171Z,97.46
2019-03-30T01:47:40.636Z,97.67
2019-03-30T01:50:17.267Z,97.79
2019-03-30T01:52:38.337Z,98.35
2019-03-30T01:55:06.176Z,98.46
2019-03-30T01:57:33.723Z,99.04
2019-03-30T02:00:01.273Z,98.02
2019-03-30T02:02:28.851Z,97.20
2019-03-30T02:04:56.442Z,98.00
2019-03-30T02:07:23.899Z,98.16
2019-03-30T02:09:51.425Z,97.14
2019-03-30T02:12:18.923Z,96.70
2019-03-30T02:14:46.444Z,96.67
2019-03-30T02:17:13.944Z,96.80
2019-03-30T02:19:41.700Z,97.32
2019-03-30T02:22:09.261Z,97.97
2019-03-30T02:24:36.809Z,98.55
2019-03-30T02:27:04.339Z,99.47
2019-03-30T02:29:31.853Z,99.65
2019-03-30T02:31:59.357Z,99.20
2019-03-30T02:34:26.927Z,100.00
2019-03-30T02:36:54.426Z,99.24
2019-03-30T02:39:21.945Z,100.00
2019-03-30T02:41:49.475Z,99.59
2019-03-30T02:44:17.013Z,100.00
2019-03-30T02:46:44.541Z,99.96
2019-03-30T02:49:12.043Z,100.00
2019-03-30T02:51:39.583Z,100.00
2019-03-30T02:54:07.062Z,100.00
2019-03-30T02:56:34.629Z,100.00
2019-03-30T02:59:02.278Z,100.00
2019-03-30T03:01:29.816Z,100.00
2019-03-30T03:03:57.345Z,100.00
2019-03-30T03:06:24.854Z,100.00
2019-03-30T03:08:52.365Z,100.00
2019-03-30T03:11:19.859Z,100.00
2019-03-30T03:13:47.338Z,100.00
2019-03-30T03:16:14.878Z,100.00
2019-03-30T03:18:42.397Z,100.00
2019-03-30T03:21:09.896Z,100.00
2019-03-30T03:23:37.389Z,100.00
2019-03-30T03:26:04.970Z,100.00
2019-03-30T03:28:32.431Z,100.00
2019-03-30T03:30:59.923Z,100.00
2019-03-30T03:33:27.385Z,100.00
2019-03-30T03:35:54.875Z,100.00
2019-03-30T03:38:22.340Z,100.00
2019-03-30T03:40:50.406Z,100.00
2019-03-30T03:43:17.939Z,100.00
2019-03-30T03:45:45.557Z,100.00
2019-03-30T03:48:13.044Z,100.00
2019-03-30T03:50:52.628Z,100.00
2019-03-30T03:53:20.133Z,100.00
2019-03-30T03:55:47.753Z,100.00
2019-03-30T03:58:16.558Z,100.00
2019-03-30T04:00:44.887Z,100.00
2019-03-30T04:03:16.812Z,100.00
2019-03-30T04:05:45.660Z,100.00
2019-03-30T04:08:13.177Z,100.00
2019-03-30T04:10:42.863Z,100.00
2019-03-30T04:13:13.208Z,100.00
2019-03-30T04:15:40.715Z,100.00
2019-03-30T04:18:08.179Z,100.00
2019-03-30T04:20:36.053Z,100.00
2019-03-30T04:23:03.559Z,100.00
2019-03-30T04:25:31.018Z,100.00
2019-03-30T04:27:58.550Z,100.00
2019-03-30T04:30:26.107Z,100.00
2019-03-30T04:32:53.670Z,100.00
2019-03-30T04:35:21.168Z,100.00
2019-03-30T04:37:48.695Z,100.00
2019-03-30T04:40:16.188Z,100.00
2019-03-30T04:42:43.695Z,100.00
2019-03-30T04:45:11.215Z,100.00
2019-03-30T04:47:38.731Z,100.00
2019-03-30T04:50:06.657Z,100.00
2019-03-30T04:52:34.171Z,100.00
2019-03-30T04:55:01.675Z,100.00
2019-03-30T04:57:29.249Z,100.00
2019-03-30T04:59:56.714Z,100.00
2019-03-30T05:02:24.231Z,100.00
2019-03-30T05:04:51.758Z,100.00
2019-03-30T05:07:19.250Z,100.00
2019-03-30T05:09:48.263Z,100.00
2019-03-30T05:12:15.859Z,100.00
2019-03-30T05:14:43.409Z,100.00
2019-03-30T05:17:10.887Z,100.00
2019-03-30T05:19:38.438Z,100.00
2019-03-30T05:22:12.652Z,100.00
2019-03-30T05:24:35.282Z,100.00
2019-03-30T05:27:02.800Z,100.00
2019-03-30T05:29:30.280Z,100.00
2019-03-30T05:31:57.785Z,100.00
2019-03-30T05:34:25.266Z,100.00
2019-03-30T05:36:52.778Z,100.00
2019-03-30T05:39:20.239Z,100.00
2019-03-30T05:41:47.740Z,100.00
2019-03-30T05:44:15.215Z,100.00
2019-03-30T05:46:42.744Z,100.00
2019-03-30T05:49:10.237Z,100.00
2019-03-30T05:51:37.754Z,100.00
2019-03-30T05:54:05.274Z,100.00
2019-03-30T05:56:32.792Z,100.00
2019-03-30T05:59:00.384Z,100.00
2019-03-30T06:01:27.884Z,100.00
2019-03-30T06:03:55.390Z,100.00
2019-03-30T06:06:22.870Z,100.00
2019-03-30T06:08:50.377Z,100.00
2019-03-30T06:11:17.917Z,100.00
2019-03-30T06:13:45.587Z,100.00
2019-03-30T06:16:13.079Z,100.00
2019-03-30T06:18:40.616Z,100.00
2019-03-30T06:21:08.146Z,100.00
2019-03-30T06:23:35.633Z,100.00
2019-03-30T06:26:03.108Z,100.00
2019-03-30T06:28:30.663Z,100.00
2019-03-30T06:30:58.148Z,100.00
2019-03-30T06:33:25.666Z,100.00
2019-03-30T06:35:53.163Z,100.00
2019-03-30T06:38:20.645Z,100.00
2019-03-30T06:40:48.120Z,100.00
2019-03-30T06:43:15.706Z,100.00
2019-03-30T06:45:43.201Z,99.11
2019-03-30T06:48:10.696Z,98.98
2019-03-30T06:50:38.182Z,98.19
2019-03-30T06:53:05.739Z,98.12
2019-03-30T06:55:33.233Z,98.16
2019-03-30T06:58:00.729Z,96.90
2019-03-30T07:00:32.607Z,96.74
2019-03-30T07:03:02.543Z,96.08
2019-03-30T07:05:30.623Z,95.76
2019-03-30T07:07:59.216Z,95.91
2019-03-30T07:10:26.818Z,94.58
2019-03-30T07:12:54.939Z,93.65
2019-03-30T07:15:24.134Z,93.06
2019-03-30T07:17:54.140Z,93.29
2019-03-30T07:20:30.672Z,92.33
2019-03-30T07:23:11.108Z,91.98
2019-03-30T07:25:27.703Z,92.25
2019-03-30T07:27:58.330Z,90.71
2019-03-30T07:30:27.087Z,89.73
2019-03-30T07:32:54.692Z,89.87
2019-03-30T07:35:22.183Z,89.34
2019-03-30T07:37:49.714Z,89.54
2019-03-30T07:40:17.175Z,89.15
2019-03-30T07:42:44.663Z,89.62
2019-03-30T07:45:12.387Z,88.52
2019-03-30T07:47:39.926Z,87.60
2019-03-30T07:50:07.562Z,86.82
2019-03-30T07:52:35.035Z,87.11
2019-03-30T07:55:02.544Z,87.56
2019-03-30T07:57:30.031Z,87.44
2019-03-30T07:59:57.576Z,86.36
2019-03-30T08:02:25.145Z,86.31
2019-03-30T08:04:52.643Z,86.31
2019-03-30T08:07:20.098Z,84.47
2019-03-30T08:09:47.683Z,82.99
2019-03-30T08:12:15.198Z,83.26
2019-03-30T08:14:45.110Z,82.85
2019-03-30T08:17:12.081Z,82.72
2019-03-30T08:19:39.569Z,82.76
2019-03-30T08:22:07.063Z,82.23
2019-03-30T08:24:34.583Z,82.10
2019-03-30T08:27:02.119Z,82.49
2019-03-30T08:29:29.650Z,80.67
2019-03-30T08:31:57.168Z,79.33
2019-03-30T08:34:24.693Z,78.95
2019-03-30T08:36:52.186Z,79.21
2019-03-30T08:39:19.704Z,77.56
2019-03-30T08:41:47.241Z,78.24
2019-03-30T08:44:14.737Z,78.08
2019-03-30T08:46:42.304Z,77.54
2019-03-30T08:49:09.840Z,75.59
2019-03-30T08:51:37.309Z,75.79
2019-03-30T08:54:04.837Z,74.42
2019-03-30T08:56:32.506Z,77.18
2019-03-30T08:59:00.083Z,74.33
2019-03-30T09:01:27.538Z,75.81
2019-03-30T09:03:55.024Z,75.14
2019-03-30T09:06:22.499Z,74.02
2019-03-30T09:08:49.978Z,74.82
2019-03-30T09:11:17.452Z,74.22
2019-03-30T09:13:44.948Z,73.13
2019-03-30T09:16:12.432Z,72.60
2019-03-30T09:18:39.921Z,73.84
2019-03-30T09:21:07.450Z,72.03
2019-03-30T09:23:34.937Z,71.35
2019-03-30T09:26:02.364Z,69.58
2019-03-30T09:28:29.840Z,68.29
2019-03-30T09:30:57.353Z,68.44
2019-03-30T09:33:24.842Z,68.43
2019-03-30T09:35:52.325Z,68.36
2019-03-30T09:38:19.989Z,66.75
2019-03-30T09:40:47.618Z,67.13
2019-03-30T09:43:15.231Z,65.78
2019-03-30T09:45:42.715Z,66.68
2019-03-30T09:50:50.441Z,66.15
2019-03-30T09:53:17.943Z,64.63
2019-03-30T09:55:45.506Z,64.43
2019-03-30T09:58:13.033Z,65.52
2019-03-30T10:00:40.564Z,64.35
2019-03-30T10:03:08.054Z,64.71
2019-03-30T10:05:35.572Z,63.02
2019-03-30T10:08:03.127Z,63.33
2019-03-30T10:10:30.628Z,64.02
2019-03-30T10:12:58.281Z,63.02
2019-03-30T10:15:25.811Z,61.50
2019-03-30T10:17:53.301Z,61.00
2019-03-30T10:20:20.809Z,61.52
2019-03-30T10:22:48.288Z,62.14
2019-03-30T10:25:15.859Z,62.24
2019-03-30T10:27:43.359Z,62.38
2019-03-30T10:30:11.430Z,63.70
2019-03-30T10:32:38.848Z,62.22
2019-03-30T10:35:06.736Z,61.79
2019-03-30T10:37:34.211Z,59.41
2019-03-30T10:40:01.738Z,57.93
2019-03-30T10:42:29.228Z,58.28
2019-03-30T10:44:56.759Z,59.31
2019-03-30T10:47:24.345Z,57.84
2019-03-30T10:49:52.401Z,59.84
2019-03-30T10:52:19.875Z,60.17
2019-03-30T10:54:52.937Z,57.38
2019-03-30T10:57:16.771Z,57.87
2019-03-30T10:59:44.392Z,55.83
2019-03-30T11:02:11.935Z,55.55
2019-03-30T11:04:39.471Z,54.56
2019-03-30T11:07:06.939Z,56.24
2019-03-30T11:09:35.978Z,56.08
2019-03-30T11:12:05.754Z,57.97
2019-03-30T11:14:37.121Z,54.45
2019-03-30T11:17:04.615Z,52.74
2019-03-30T11:19:32.129Z,54.94
2019-03-30T11:22:02.876Z,53.55
2019-03-30T11:24:29.005Z,51.95
2019-03-30T11:26:56.506Z,52.10
2019-03-30T11:29:23.991Z,50.44
2019-03-30T11:31:51.465Z,48.68
2019-03-30T11:34:19.001Z,49.68
2019-03-30T11:36:46.477Z,47.68
2019-03-30T11:39:13.981Z,48.79
2019-03-30T11:41:41.509Z,48.06
2019-03-30T11:44:09.007Z,45.93
2019-03-30T11:46:36.521Z,44.59
2019-03-30T11:49:04.050Z,43.25
2019-03-30T11:51:31.585Z,46.27
2019-03-30T11:53:59.088Z,48.02
2019-03-30T11:56:26.630Z,48.24
2019-03-30T11:58:54.110Z,47.69
2019-03-30T12:01:22.018Z,48.87
2019-03-30T12:03:49.622Z,49.01
2019-03-30T12:06:17.191Z,48.99
2019-03-30T12:08:44.668Z,48.51
2019-03-30T12:11:12.274Z,49.05
2019-03-30T12:13:39.731Z,50.37
2019-03-30T12:16:07.250Z,48.03
2019-03-30T12:18:34.698Z,48.76
2019-03-30T12:21:02.212Z,47.81
2019-03-30T12:23:29.711Z,46.20
2019-03-30T12:25:57.160Z,47.97
2019-03-30T12:28:24.826Z,43.94
2019-03-30T12:30:52.359Z,44.43
2019-03-30T12:33:19.829Z,44.95
2019-03-30T12:35:47.439Z,44.56
2019-03-30T12:38:14.919Z,43.46
2019-03-30T12:40:42.419Z,45.72
2019-03-30T12:43:09.920Z,44.68
2019-03-30T12:45:37.426Z,45.87
2019-03-30T12:48:04.987Z,44.46
2019-03-30T12:50:32.726Z,44.41
2019-03-30T12:53:00.949Z,44.57
2019-03-30T12:55:28.454Z,42.96
2019-03-30T12:57:55.950Z,40.74
2019-03-30T13:00:23.935Z,40.85
2019-03-30T13:02:52.029Z,41.50
2019-03-30T13:05:19.565Z,41.38
2019-03-30T13:07:47.036Z,41.44
2019-03-30T13:10:14.745Z,38.25
2019-03-30T13:12:42.207Z,36.01
2019-03-30T13:15:09.733Z,36.11
2019-03-30T13:17:37.212Z,37.29
2019-03-30T13:20:05.533Z,37.96
2019-03-30T13:22:33.069Z,38.49
2019-03-30T13:25:00.620Z,37.81
2019-03-30T13:27:28.090Z,37.20
2019-03-30T13:29:55.592Z,36.08
2019-03-30T13:32:23.194Z,37.48
2019-03-30T13:34:50.754Z,36.30
2019-03-30T13:37:19.096Z,36.53
2019-03-30T13:39:46.594Z,36.64
2019-03-30T13:42:14.097Z,36.52
2019-03-30T13:44:41.613Z,36.89
2019-03-30T13:47:09.130Z,36.00
2019-03-30T13:49:36.613Z,35.69
2019-03-30T13:52:04.126Z,36.23
2019-03-30T13:54:31.583Z,37.13
2019-03-30T13:56:59.166Z,36.10
2019-03-30T13:59:26.725Z,35.86
2019-03-30T14:01:54.272Z,36.81
2019-03-30T14:04:21.742Z,36.10
2019-03-30T14:06:49.261Z,35.68
2019-03-30T14:09:16.904Z,35.26
2019-03-30T14:11:44.396Z,36.46
2019-03-30T14:14:11.856Z,36.72
2019-03-30T14:16:39.384Z,36.41
2019-03-30T14:19:06.886Z,38.11
2019-03-30T14:21:34.384Z,36.89
2019-03-30T14:24:01.898Z,36.19
2019-03-30T14:26:31.653Z,35.63
2019-03-30T14:28:58.775Z,34.97
2019-03-30T14:31:26.281Z,34.56
2019-03-30T14:33:53.770Z,36.25
2019-03-30T14:36:21.250Z,35.60
2019-03-30T14:38:48.730Z,36.07
2019-03-30T14:41:16.288Z,36.00
2019-03-30T14:43:43.774Z,34.19
2019-03-30T14:46:11.271Z,36.57
2019-03-30T14:48:38.774Z,38.52
2019-03-30T14:51:06.262Z,36.87
2019-03-30T14:53:33.735Z,37.07
2019-03-30T14:56:01.733Z,38.77
2019-03-30T14:58:29.242Z,36.90
2019-03-30T15:00:56.713Z,39.20
2019-03-30T15:03:24.178Z,37.62
2019-03-30T15:05:51.651Z,38.05
2019-03-30T15:08:19.172Z,39.32
2019-03-30T15:10:46.656Z,38.61
2019-03-30T15:13:14.190Z,40.26
2019-03-30T15:15:41.660Z,39.64
2019-03-30T15:18:09.140Z,39.52
2019-03-30T15:20:36.638Z,39.88
2019-03-30T15:23:04.131Z,39.62
2019-03-30T15:25:31.599Z,40.59
2019-03-30T15:27:59.111Z,40.96
2019-03-30T15:30:26.583Z,40.49
2019-03-30T15:32:54.062Z,40.73
2019-03-30T15:35:21.546Z,41.31
2019-03-30T15:37:49.039Z,41.64
2019-03-30T15:40:16.506Z,41.79
2019-03-30T15:42:44.000Z,40.89
2019-03-30T15:45:11.519Z,41.35
2019-03-30T15:47:38.985Z,41.43
2019-03-30T15:50:07.489Z,41.29
2019-03-30T15:52:35.048Z,42.56
2019-03-30T15:55:02.522Z,42.20
2019-03-30T15:57:30.053Z,41.21
2019-03-30T15:59:57.815Z,41.51
2019-03-30T16:02:25.306Z,41.75
2019-03-30T16:04:52.771Z,41.51
2019-03-30T16:07:20.255Z,40.89
2019-03-30T16:09:47.926Z,41.77
2019-03-30T16:12:15.467Z,41.84
2019-03-30T16:14:42.901Z,41.11
2019-03-30T16:17:10.423Z,40.51
2019-03-30T16:19:37.899Z,40.88
2019-03-30T16:22:05.507Z,41.57
2019-03-30T16:24:32.982Z,42.51
2019-03-30T16:27:00.485Z,42.35
2019-03-30T16:29:28.016Z,42.53
2019-03-30T16:31:55.523Z,42.59
2019-03-30T16:34:22.998Z,43.50
2019-03-30T16:36:50.461Z,42.34
2019-03-30T16:39:17.987Z,43.78
2019-03-30T16:41:45.465Z,43.43
2019-03-30T16:44:12.984Z,43.36
2019-03-30T16:46:40.482Z,43.96
2019-03-30T16:49:07.986Z,43.03
2019-03-30T16:51:35.476Z,42.81
2019-03-30T16:54:06.709Z,42.07
2019-03-30T16:56:34.301Z,42.27
2019-03-30T16:59:01.852Z,41.68
2019-03-30T17:01:29.311Z,42.37
2019-03-30T17:03:56.923Z,42.52
2019-03-30T17:06:24.400Z,42.91
2019-03-30T17:08:52.437Z,43.37
2019-03-30T17:11:19.966Z,43.84
2019-03-30T17:13:47.477Z,43.84
2019-03-30T17:16:14.958Z,43.83
2019-03-30T17:18:42.459Z,43.75
2019-03-30T17:21:09.943Z,44.41
2019-03-30T17:23:37.490Z,44.44
2019-03-30T17:26:04.957Z,44.62
2019-03-30T17:28:32.532Z,44.86
2019-03-30T17:31:00.030Z,44.93
2019-03-30T17:33:27.586Z,45.02
2019-03-30T17:35:55.111Z,45.28
2019-03-30T17:38:22.609Z,45.50
2019-03-30T17:40:50.085Z,45.73
2019-03-30T17:43:17.947Z,46.20
2019-03-30T17:45:45.432Z,46.07
2019-03-30T17:48:12.950Z,47.30
2019-03-30T17:50:40.517Z,48.41
2019-03-30T17:53:08.047Z,49.02
2019-03-30T17:55:35.542Z,49.57
2019-03-30T17:58:12.773Z,51.07
2019-03-30T18:00:35.191Z,51.27
2019-03-30T18:03:03.660Z,51.90
2019-03-30T18:05:33.355Z,51.52
2019-03-30T18:08:02.097Z,52.56
2019-03-30T18:10:30.018Z,53.81
2019-03-30T18:12:57.578Z,52.64
2019-03-30T18:15:25.350Z,53.44
2019-03-30T18:17:56.522Z,55.12
2019-03-30T18:20:22.709Z,56.69
2019-03-30T18:22:50.454Z,55.60
2019-03-30T18:25:18.182Z,55.58
2019-03-30T18:27:45.904Z,55.30
2019-03-30T18:30:13.894Z,55.66
2019-03-30T18:32:41.363Z,55.67
2019-03-30T18:35:08.863Z,56.00
2019-03-30T18:37:37.546Z,56.27
2019-03-30T18:40:05.666Z,56.51
2019-03-30T18:42:33.443Z,58.16
2019-03-30T18:45:02.101Z,57.04
2019-03-30T18:47:29.573Z,57.20
2019-03-30T18:49:57.078Z,60.21
2019-03-30T18:52:24.550Z,58.22
2019-03-30T18:54:52.359Z,57.88
2019-03-30T18:57:19.936Z,58.40
2019-03-30T18:59:47.435Z,59.49
2019-03-30T19:02:14.894Z,59.94
2019-03-30T19:04:42.397Z,58.48
2019-03-30T19:07:10.729Z,62.34
2019-03-30T19:09:38.289Z,63.11
2019-03-30T19:12:05.758Z,62.96
2019-03-30T19:14:33.282Z,62.88
2019-03-30T19:17:00.746Z,64.28
2019-03-30T19:19:28.253Z,64.81
2019-03-30T19:21:55.785Z,64.29
2019-03-30T19:24:23.282Z,64.14
2019-03-30T19:26:50.783Z,63.53
2019-03-30T19:29:18.290Z,63.72
2019-03-30T19:31:45.760Z,62.88
2019-03-30T19:34:13.277Z,64.42
2019-03-30T19:36:40.771Z,65.64
2019-03-30T19:39:09.240Z,65.21
2019-03-30T19:41:36.699Z,67.55
2019-03-30T19:44:04.198Z,68.43
2019-03-30T19:46:31.658Z,69.01
2019-03-30T19:48:59.145Z,68.43
2019-03-30T19:51:26.622Z,68.00
2019-03-30T19:53:54.107Z,68.09
2019-03-30T19:56:21.630Z,67.83
2019-03-30T19:58:49.109Z,69.23
2019-03-30T20:01:16.615Z,69.69
2019-03-30T20:03:44.091Z,70.26
2019-03-30T20:06:11.623Z,70.55
2019-03-30T20:08:39.082Z,70.35
2019-03-30T20:11:06.623Z,71.34
2019-03-30T20:13:34.106Z,72.34
2019-03-30T20:16:01.639Z,73.16
2019-03-30T20:18:29.126Z,73.19
2019-03-30T20:20:56.650Z,71.43
2019-03-30T20:23:24.132Z,70.41
2019-03-30T20:25:51.693Z,70.08
2019-03-30T20:28:19.180Z,71.49
2019-03-30T20:30:46.764Z,72.86
2019-03-30T20:33:14.242Z,73.87
2019-03-30T20:35:41.863Z,75.16
2019-03-30T20:38:09.349Z,75.18
2019-03-30T20:40:36.893Z,75.22
2019-03-30T20:43:04.403Z,74.02
2019-03-30T20:45:32.053Z,73.08
2019-03-30T20:47:59.524Z,72.83
2019-03-30T20:50:27.057Z,73.45
2019-03-30T20:52:54.577Z,74.15
2019-03-30T20:55:22.215Z,72.86
2019-03-30T20:57:49.711Z,71.06
2019-03-30T21:00:17.230Z,73.18
2019-03-30T21:02:44.890Z,75.50
2019-03-30T21:05:14.212Z,76.08
2019-03-30T21:07:41.981Z,75.43
2019-03-30T21:10:09.903Z,74.60
2019-03-30T21:12:37.426Z,75.55
2019-03-30T21:15:05.971Z,74.66
2019-03-30T21:17:33.493Z,74.39
2019-03-30T21:20:01.247Z,74.71
2019-03-30T21:22:28.702Z,75.86
2019-03-30T21:24:56.233Z,76.73
2019-03-30T21:27:23.702Z,74.19
2019-03-30T21:29:54.797Z,74.52
2019-03-30T21:32:20.615Z,75.43
2019-03-30T21:34:48.083Z,74.25
2019-03-30T21:37:15.618Z,74.62
2019-03-30T21:39:43.095Z,76.00
2019-03-30T21:42:10.722Z,75.56
2019-03-30T21:44:38.201Z,76.56
2019-03-30T21:47:05.735Z,77.78
2019-03-30T21:49:33.229Z,77.58
2019-03-30T21:52:01.083Z,78.02
2019-03-30T21:54:28.643Z,77.82
2019-03-30T21:56:56.143Z,78.68
2019-03-30T21:59:23.616Z,79.20
2019-03-30T22:01:51.323Z,79.48
2019-03-30T22:04:18.795Z,78.44
2019-03-30T22:06:46.475Z,79.52
2019-03-30T22:09:13.947Z,79.53
2019-03-30T22:11:41.500Z,79.54
2019-03-30T22:14:09.083Z,79.73
2019-03-30T22:16:36.610Z,78.40
2019-03-30T22:19:04.140Z,78.38
2019-03-30T22:21:31.711Z,80.50
2019-03-30T22:23:59.205Z,80.78
2019-03-30T22:26:26.701Z,81.61
2019-03-30T22:28:54.250Z,82.89
2019-03-30T22:31:21.737Z,82.47
2019-03-30T22:33:49.243Z,82.57
2019-03-30T22:36:16.731Z,82.44
2019-03-30T22:38:44.305Z,83.72
2019-03-30T22:41:11.841Z,83.53
2019-03-30T22:43:39.377Z,83.99
2019-03-30T22:46:07.759Z,84.23
2019-03-30T22:48:35.378Z,84.66
2019-03-30T22:51:02.868Z,84.45
2019-03-30T22:53:30.661Z,84.85
2019-03-30T22:55:58.422Z,85.19
2019-03-30T22:58:25.967Z,85.50
2019-03-30T23:01:11.129Z,85.27
2019-03-30T23:03:38.683Z,84.09
2019-03-30T23:06:06.241Z,85.19
2019-03-30T23:08:33.792Z,85.28
2019-03-30T23:11:01.256Z,86.30
2019-03-30T23:13:28.745Z,86.12
2019-03-30T23:15:56.474Z,85.47
2019-03-30T23:18:23.972Z,87.21
2019-03-30T23:20:51.471Z,87.29
2019-03-30T23:23:19.019Z,86.26
2019-03-30T23:25:46.493Z,84.30
2019-03-30T23:28:14.022Z,84.43
2019-03-30T23:30:53.630Z,85.97
2019-03-30T23:33:11.205Z,86.50
2019-03-30T23:35:38.681Z,87.88
2019-03-30T23:38:06.173Z,88.40
2019-03-30T23:40:33.727Z,89.28
2019-03-30T23:43:02.367Z,90.08
2019-03-30T23:45:30.118Z,90.01
2019-03-30T23:47:57.780Z,89.53
2019-03-30T23:50:25.630Z,88.99
2019-03-30T23:52:53.219Z,89.51
2019-03-30T23:55:20.999Z,90.05
2019-03-30T23:57:48.589Z,90.65
